Colerain, North Carolina
Current Conditions -  °F | °C
As of 1:15 AM on Saturday 29 Nov 2014 (Local Time) from KEDE Reporting Station
NA  
Wind Chill: 28°   Ceiling: NA
Heat Index: 28°   Visibility: 10mi
Dew Point: 26°   Wind: 0mph
Humidity: 91%   Direction: NA
Pressure: 30.32"   Gusts: NA
Location:  36.2°N, 76.77°W
Report Text: KEDE 290615Z AUTO 00000KT 10SM M02/M03 A3032 RMK AO2 T10211034
Loading
Personal Weather Stations






























Interactive Weather Map New forecast layout! Learn more

10-Day Weather Forecast

Advertisements
Track Severe Weather on mobile